sensor_id;sensor_type;location;lat;lon;timestamp;P1;durP1;ratioP1;P2;durP2;ratioP2
41099;SDS011;26844;53.686;-6.346;2024-02-04T00:00:13;20.75;;;19.65;;
41099;SDS011;26844;53.686;-6.346;2024-02-04T00:02:38;20.90;;;19.80;;
41099;SDS011;26844;53.686;-6.346;2024-02-04T00:05:03;20.92;;;19.83;;
41099;SDS011;26844;53.686;-6.346;2024-02-04T00:07:29;21.65;;;20.55;;
41099;SDS011;26844;53.686;-6.346;2024-02-04T00:09:54;21.55;;;20.45;;
41099;SDS011;26844;53.686;-6.346;2024-02-04T00:12:20;21.73;;;20.63;;
41099;SDS011;26844;53.686;-6.346;2024-02-04T00:14:46;21.98;;;20.88;;
41099;SDS011;26844;53.686;-6.346;2024-02-04T00:17:12;21.55;;;20.45;;
41099;SDS011;26844;53.686;-6.346;2024-02-04T00:19:39;21.10;;;20.00;;
41099;SDS011;26844;53.686;-6.346;2024-02-04T00:22:07;21.00;;;19.90;;
41099;SDS011;26844;53.686;-6.346;2024-02-04T00:24:33;21.23;;;20.13;;
41099;SDS011;26844;53.686;-6.346;2024-02-04T00:26:58;21.13;;;20.02;;
41099;SDS011;26844;53.686;-6.346;2024-02-04T00:29:23;21.10;;;20.00;;
41099;SDS011;26844;53.686;-6.346;2024-02-04T00:31:48;20.83;;;19.75;;
41099;SDS011;26844;53.686;-6.346;2024-02-04T00:34:14;20.63;;;19.55;;
41099;SDS011;26844;53.686;-6.346;2024-02-04T00:36:39;21.02;;;19.92;;
41099;SDS011;26844;53.686;-6.346;2024-02-04T00:39:04;20.33;;;19.33;;
41099;SDS011;26844;53.686;-6.346;2024-02-04T00:41:30;20.90;;;19.80;;
41099;SDS011;26844;53.686;-6.346;2024-02-04T00:43:55;20.48;;;19.38;;
41099;SDS011;26844;53.686;-6.346;2024-02-04T00:46:20;20.50;;;19.50;;
41099;SDS011;26844;53.686;-6.346;2024-02-04T00:48:46;20.80;;;19.80;;
41099;SDS011;26844;53.686;-6.346;2024-02-04T00:51:11;20.98;;;19.95;;
41099;SDS011;26844;53.686;-6.346;2024-02-04T00:53:38;20.77;;;19.77;;
41099;SDS011;26844;53.686;-6.346;2024-02-04T00:56:03;22.10;;;21.00;;
41099;SDS011;26844;53.686;-6.346;2024-02-04T00:58:29;21.48;;;20.42;;
41099;SDS011;26844;53.686;-6.346;2024-02-04T01:00:54;22.17;;;21.08;;
41099;SDS011;26844;53.686;-6.346;2024-02-04T01:03:19;21.52;;;20.52;;
41099;SDS011;26844;53.686;-6.346;2024-02-04T01:05:45;21.15;;;20.15;;
41099;SDS011;26844;53.686;-6.346;2024-02-04T01:08:10;21.38;;;20.33;;
41099;SDS011;26844;53.686;-6.346;2024-02-04T01:10:35;21.90;;;20.80;;
41099;SDS011;26844;53.686;-6.346;2024-02-04T01:13:00;22.15;;;21.05;;
41099;SDS011;26844;53.686;-6.346;2024-02-04T01:15:26;21.88;;;20.77;;
41099;SDS011;26844;53.686;-6.346;2024-02-04T01:17:51;22.08;;;20.98;;
41099;SDS011;26844;53.686;-6.346;2024-02-04T01:20:18;21.27;;;20.27;;
41099;SDS011;26844;53.686;-6.346;2024-02-04T01:22:43;21.13;;;20.13;;
41099;SDS011;26844;53.686;-6.346;2024-02-04T01:25:09;21.33;;;20.33;;
41099;SDS011;26844;53.686;-6.346;2024-02-04T01:27:34;19.65;;;18.75;;
41099;SDS011;26844;53.686;-6.346;2024-02-04T01:29:59;20.25;;;19.35;;
41099;SDS011;26844;53.686;-6.346;2024-02-04T01:32:24;19.73;;;18.83;;
41099;SDS011;26844;53.686;-6.346;2024-02-04T01:34:50;19.48;;;18.58;;
41099;SDS011;26844;53.686;-6.346;2024-02-04T01:37:15;19.35;;;18.45;;
41099;SDS011;26844;53.686;-6.346;2024-02-04T01:39:40;20.23;;;19.33;;
41099;SDS011;26844;53.686;-6.346;2024-02-04T01:42:05;19.58;;;18.67;;
41099;SDS011;26844;53.686;-6.346;2024-02-04T01:44:31;19.48;;;18.58;;
41099;SDS011;26844;53.686;-6.346;2024-02-04T01:46:56;19.40;;;18.50;;
41099;SDS011;26844;53.686;-6.346;2024-02-04T01:49:23;21.23;;;20.23;;
41099;SDS011;26844;53.686;-6.346;2024-02-04T01:51:49;21.30;;;20.30;;
41099;SDS011;26844;53.686;-6.346;2024-02-04T01:54:14;21.08;;;20.08;;
41099;SDS011;26844;53.686;-6.346;2024-02-04T01:56:39;22.17;;;21.08;;
41099;SDS011;26844;53.686;-6.346;2024-02-04T01:59:05;21.30;;;20.30;;
41099;SDS011;26844;53.686;-6.346;2024-02-04T02:01:31;20.92;;;19.92;;
41099;SDS011;26844;53.686;-6.346;2024-02-04T02:03:56;20.67;;;19.67;;
41099;SDS011;26844;53.686;-6.346;2024-02-04T02:06:22;21.42;;;20.33;;
41099;SDS011;26844;53.686;-6.346;2024-02-04T02:08:48;21.15;;;20.05;;
41099;SDS011;26844;53.686;-6.346;2024-02-04T02:11:19;22.02;;;20.92;;
41099;SDS011;26844;53.686;-6.346;2024-02-04T02:13:47;21.60;;;20.50;;
41099;SDS011;26844;53.686;-6.346;2024-02-04T02:16:15;21.90;;;20.80;;
41099;SDS011;26844;53.686;-6.346;2024-02-04T02:18:47;21.13;;;20.13;;
41099;SDS011;26844;53.686;-6.346;2024-02-04T02:21:19;21.67;;;20.58;;
41099;SDS011;26844;53.686;-6.346;2024-02-04T02:24:03;21.25;;;20.23;;
41099;SDS011;26844;53.686;-6.346;2024-02-04T02:26:29;21.77;;;20.67;;
41099;SDS011;26844;53.686;-6.346;2024-02-04T02:28:55;20.58;;;19.58;;
41099;SDS011;26844;53.686;-6.346;2024-02-04T02:31:20;21.17;;;20.17;;
41099;SDS011;26844;53.686;-6.346;2024-02-04T02:33:45;21.38;;;20.27;;
41099;SDS011;26844;53.686;-6.346;2024-02-04T02:36:13;20.70;;;19.70;;
41099;SDS011;26844;53.686;-6.346;2024-02-04T02:38:46;20.40;;;19.40;;
41099;SDS011;26844;53.686;-6.346;2024-02-04T02:41:13;20.33;;;19.33;;
41099;SDS011;26844;53.686;-6.346;2024-02-04T02:43:40;20.58;;;19.58;;
41099;SDS011;26844;53.686;-6.346;2024-02-04T02:46:07;20.08;;;19.08;;
41099;SDS011;26844;53.686;-6.346;2024-02-04T02:48:32;20.30;;;19.30;;
41099;SDS011;26844;53.686;-6.346;2024-02-04T02:50:58;20.75;;;19.75;;
41099;SDS011;26844;53.686;-6.346;2024-02-04T02:53:23;19.98;;;18.98;;
41099;SDS011;26844;53.686;-6.346;2024-02-04T02:55:48;21.38;;;20.30;;
41099;SDS011;26844;53.686;-6.346;2024-02-04T02:58:14;20.20;;;19.20;;
41099;SDS011;26844;53.686;-6.346;2024-02-04T03:00:39;20.08;;;19.08;;
41099;SDS011;26844;53.686;-6.346;2024-02-04T03:03:04;20.25;;;19.25;;
41099;SDS011;26844;53.686;-6.346;2024-02-04T03:05:29;20.70;;;19.70;;
41099;SDS011;26844;53.686;-6.346;2024-02-04T03:07:55;21.17;;;20.17;;
41099;SDS011;26844;53.686;-6.346;2024-02-04T03:10:20;21.05;;;20.05;;
41099;SDS011;26844;53.686;-6.346;2024-02-04T03:12:45;20.25;;;19.33;;
41099;SDS011;26844;53.686;-6.346;2024-02-04T03:15:10;21.00;;;20.00;;
41099;SDS011;26844;53.686;-6.346;2024-02-04T03:17:36;21.80;;;20.80;;
41099;SDS011;26844;53.686;-6.346;2024-02-04T03:20:01;21.58;;;20.58;;
41099;SDS011;26844;53.686;-6.346;2024-02-04T03:22:26;21.48;;;20.48;;
41099;SDS011;26844;53.686;-6.346;2024-02-04T03:24:51;20.80;;;19.80;;
41099;SDS011;26844;53.686;-6.346;2024-02-04T03:27:17;20.25;;;19.35;;
41099;SDS011;26844;53.686;-6.346;2024-02-04T03:29:42;20.25;;;19.35;;
41099;SDS011;26844;53.686;-6.346;2024-02-04T03:32:08;20.20;;;19.30;;
41099;SDS011;26844;53.686;-6.346;2024-02-04T03:34:33;20.33;;;19.33;;
41099;SDS011;26844;53.686;-6.346;2024-02-04T03:37:00;20.77;;;19.77;;
41099;SDS011;26844;53.686;-6.346;2024-02-04T03:39:25;20.42;;;19.42;;
41099;SDS011;26844;53.686;-6.346;2024-02-04T03:41:51;21.02;;;20.02;;
41099;SDS011;26844;53.686;-6.346;2024-02-04T03:46:47;20.70;;;19.70;;
41099;SDS011;26844;53.686;-6.346;2024-02-04T03:49:13;20.55;;;19.55;;
41099;SDS011;26844;53.686;-6.346;2024-02-04T03:51:38;20.02;;;19.02;;
41099;SDS011;26844;53.686;-6.346;2024-02-04T03:54:04;19.90;;;18.90;;
41099;SDS011;26844;53.686;-6.346;2024-02-04T03:56:29;19.90;;;18.90;;
41099;SDS011;26844;53.686;-6.346;2024-02-04T03:58:54;20.00;;;19.00;;
41099;SDS011;26844;53.686;-6.346;2024-02-04T04:01:19;19.75;;;18.75;;
41099;SDS011;26844;53.686;-6.346;2024-02-04T04:03:45;19.40;;;18.40;;
41099;SDS011;26844;53.686;-6.346;2024-02-04T04:06:10;19.23;;;18.23;;
41099;SDS011;26844;53.686;-6.346;2024-02-04T04:08:36;19.58;;;18.58;;
41099;SDS011;26844;53.686;-6.346;2024-02-04T04:11:01;19.73;;;18.73;;
41099;SDS011;26844;53.686;-6.346;2024-02-04T04:13:26;19.35;;;18.35;;
41099;SDS011;26844;53.686;-6.346;2024-02-04T04:15:52;19.50;;;18.50;;
41099;SDS011;26844;53.686;-6.346;2024-02-04T04:18:17;19.95;;;18.95;;
41099;SDS011;26844;53.686;-6.346;2024-02-04T04:20:42;19.83;;;18.83;;
41099;SDS011;26844;53.686;-6.346;2024-02-04T04:23:07;19.65;;;18.65;;
41099;SDS011;26844;53.686;-6.346;2024-02-04T04:25:33;19.80;;;18.80;;
41099;SDS011;26844;53.686;-6.346;2024-02-04T04:27:58;20.27;;;19.27;;
41099;SDS011;26844;53.686;-6.346;2024-02-04T04:30:24;19.90;;;18.90;;
41099;SDS011;26844;53.686;-6.346;2024-02-04T04:32:49;19.55;;;18.55;;
41099;SDS011;26844;53.686;-6.346;2024-02-04T04:35:14;19.20;;;18.20;;
41099;SDS011;26844;53.686;-6.346;2024-02-04T04:37:39;18.98;;;18.08;;
41099;SDS011;26844;53.686;-6.346;2024-02-04T04:40:05;19.75;;;18.75;;
41099;SDS011;26844;53.686;-6.346;2024-02-04T04:42:30;19.20;;;18.30;;
41099;SDS011;26844;53.686;-6.346;2024-02-04T04:44:56;19.85;;;18.85;;
41099;SDS011;26844;53.686;-6.346;2024-02-04T04:47:21;19.52;;;18.63;;
41099;SDS011;26844;53.686;-6.346;2024-02-04T04:49:46;19.25;;;18.35;;
41099;SDS011;26844;53.686;-6.346;2024-02-04T04:52:12;19.40;;;18.50;;
41099;SDS011;26844;53.686;-6.346;2024-02-04T04:54:39;20.25;;;19.35;;
41099;SDS011;26844;53.686;-6.346;2024-02-04T04:57:04;19.75;;;18.85;;
41099;SDS011;26844;53.686;-6.346;2024-02-04T04:59:29;20.38;;;19.48;;
41099;SDS011;26844;53.686;-6.346;2024-02-04T05:01:55;20.50;;;19.60;;
41099;SDS011;26844;53.686;-6.346;2024-02-04T05:04:20;20.15;;;19.25;;
41099;SDS011;26844;53.686;-6.346;2024-02-04T05:06:48;19.98;;;19.08;;
41099;SDS011;26844;53.686;-6.346;2024-02-04T05:09:13;20.48;;;19.58;;
41099;SDS011;26844;53.686;-6.346;2024-02-04T05:11:39;21.38;;;20.38;;
41099;SDS011;26844;53.686;-6.346;2024-02-04T05:14:04;20.52;;;19.63;;
41099;SDS011;26844;53.686;-6.346;2024-02-04T05:16:29;21.17;;;20.27;;
41099;SDS011;26844;53.686;-6.346;2024-02-04T05:18:55;20.67;;;19.77;;
41099;SDS011;26844;53.686;-6.346;2024-02-04T05:21:20;21.15;;;20.25;;
41099;SDS011;26844;53.686;-6.346;2024-02-04T05:23:45;19.63;;;18.77;;
41099;SDS011;26844;53.686;-6.346;2024-02-04T05:26:11;19.38;;;18.58;;
41099;SDS011;26844;53.686;-6.346;2024-02-04T05:28:36;20.23;;;19.33;;
41099;SDS011;26844;53.686;-6.346;2024-02-04T05:31:01;19.80;;;18.90;;
41099;SDS011;26844;53.686;-6.346;2024-02-04T05:33:27;19.77;;;18.88;;
41099;SDS011;26844;53.686;-6.346;2024-02-04T05:35:53;20.38;;;19.48;;
41099;SDS011;26844;53.686;-6.346;2024-02-04T05:38:18;20.50;;;19.60;;
41099;SDS011;26844;53.686;-6.346;2024-02-04T05:40:43;20.38;;;19.48;;
41099;SDS011;26844;53.686;-6.346;2024-02-04T05:43:09;20.50;;;19.60;;
41099;SDS011;26844;53.686;-6.346;2024-02-04T05:45:36;20.50;;;19.60;;
41099;SDS011;26844;53.686;-6.346;2024-02-04T05:48:02;22.02;;;21.02;;
41099;SDS011;26844;53.686;-6.346;2024-02-04T05:50:27;20.70;;;19.80;;
41099;SDS011;26844;53.686;-6.346;2024-02-04T05:52:52;21.13;;;20.23;;
41099;SDS011;26844;53.686;-6.346;2024-02-04T05:55:18;21.27;;;20.38;;
41099;SDS011;26844;53.686;-6.346;2024-02-04T05:57:43;20.13;;;19.23;;
41099;SDS011;26844;53.686;-6.346;2024-02-04T06:00:09;20.65;;;19.75;;
41099;SDS011;26844;53.686;-6.346;2024-02-04T06:02:37;20.98;;;20.08;;
41099;SDS011;26844;53.686;-6.346;2024-02-04T06:05:02;20.70;;;19.80;;
41099;SDS011;26844;53.686;-6.346;2024-02-04T06:07:27;21.05;;;20.15;;
41099;SDS011;26844;53.686;-6.346;2024-02-04T06:09:53;19.85;;;19.00;;
41099;SDS011;26844;53.686;-6.346;2024-02-04T06:12:20;20.35;;;19.45;;
41099;SDS011;26844;53.686;-6.346;2024-02-04T06:14:46;21.38;;;20.48;;
41099;SDS011;26844;53.686;-6.346;2024-02-04T06:17:11;21.15;;;20.25;;
41099;SDS011;26844;53.686;-6.346;2024-02-04T06:19:36;21.38;;;20.45;;
41099;SDS011;26844;53.686;-6.346;2024-02-04T06:22:01;20.35;;;19.45;;
41099;SDS011;26844;53.686;-6.346;2024-02-04T06:24:27;20.50;;;19.60;;
41099;SDS011;26844;53.686;-6.346;2024-02-04T06:26:52;20.77;;;19.88;;
41099;SDS011;26844;53.686;-6.346;2024-02-04T06:29:17;20.83;;;19.92;;
41099;SDS011;26844;53.686;-6.346;2024-02-04T06:31:46;20.40;;;19.50;;
41099;SDS011;26844;53.686;-6.346;2024-02-04T06:34:11;20.20;;;19.30;;
41099;SDS011;26844;53.686;-6.346;2024-02-04T06:36:36;21.15;;;20.15;;
41099;SDS011;26844;53.686;-6.346;2024-02-04T06:39:02;19.77;;;18.88;;
41099;SDS011;26844;53.686;-6.346;2024-02-04T06:41:27;20.50;;;19.50;;
41099;SDS011;26844;53.686;-6.346;2024-02-04T06:43:52;19.83;;;18.85;;
41099;SDS011;26844;53.686;-6.346;2024-02-04T06:46:24;19.77;;;18.77;;
41099;SDS011;26844;53.686;-6.346;2024-02-04T06:48:50;19.40;;;18.40;;
41099;SDS011;26844;53.686;-6.346;2024-02-04T06:51:15;19.40;;;18.40;;
41099;SDS011;26844;53.686;-6.346;2024-02-04T06:53:41;19.30;;;18.30;;
41099;SDS011;26844;53.686;-6.346;2024-02-04T06:56:06;18.98;;;18.08;;
41099;SDS011;26844;53.686;-6.346;2024-02-04T06:58:32;19.02;;;18.13;;
41099;SDS011;26844;53.686;-6.346;2024-02-04T07:00:57;19.40;;;18.50;;
41099;SDS011;26844;53.686;-6.346;2024-02-04T07:03:22;19.88;;;18.88;;
41099;SDS011;26844;53.686;-6.346;2024-02-04T07:05:47;20.23;;;19.23;;
41099;SDS011;26844;53.686;-6.346;2024-02-04T07:08:13;20.02;;;19.02;;
41099;SDS011;26844;53.686;-6.346;2024-02-04T07:10:38;20.15;;;19.15;;
41099;SDS011;26844;53.686;-6.346;2024-02-04T07:13:03;19.55;;;18.65;;
41099;SDS011;26844;53.686;-6.346;2024-02-04T07:15:29;19.27;;;18.38;;
41099;SDS011;26844;53.686;-6.346;2024-02-04T07:17:54;19.88;;;18.98;;
41099;SDS011;26844;53.686;-6.346;2024-02-04T07:20:19;20.05;;;19.10;;
41099;SDS011;26844;53.686;-6.346;2024-02-04T07:22:45;20.55;;;19.55;;
41099;SDS011;26844;53.686;-6.346;2024-02-04T07:25:10;20.40;;;19.42;;
41099;SDS011;26844;53.686;-6.346;2024-02-04T07:27:36;20.20;;;19.20;;
41099;SDS011;26844;53.686;-6.346;2024-02-04T07:30:01;20.90;;;19.90;;
41099;SDS011;26844;53.686;-6.346;2024-02-04T07:32:28;21.65;;;20.65;;
41099;SDS011;26844;53.686;-6.346;2024-02-04T07:34:53;21.02;;;20.02;;
41099;SDS011;26844;53.686;-6.346;2024-02-04T07:37:19;20.77;;;19.77;;
41099;SDS011;26844;53.686;-6.346;2024-02-04T07:39:44;21.13;;;20.13;;
41099;SDS011;26844;53.686;-6.346;2024-02-04T07:42:09;20.55;;;19.55;;
41099;SDS011;26844;53.686;-6.346;2024-02-04T07:44:35;20.65;;;19.65;;
41099;SDS011;26844;53.686;-6.346;2024-02-04T07:47:00;20.88;;;19.88;;
41099;SDS011;26844;53.686;-6.346;2024-02-04T07:49:25;20.50;;;19.52;;
41099;SDS011;26844;53.686;-6.346;2024-02-04T07:51:50;20.52;;;19.52;;
41099;SDS011;26844;53.686;-6.346;2024-02-04T07:54:16;21.23;;;20.23;;
41099;SDS011;26844;53.686;-6.346;2024-02-04T07:56:41;20.45;;;19.45;;
41099;SDS011;26844;53.686;-6.346;2024-02-04T07:59:06;20.60;;;19.60;;
41099;SDS011;26844;53.686;-6.346;2024-02-04T08:01:32;20.55;;;19.55;;
41099;SDS011;26844;53.686;-6.346;2024-02-04T08:03:57;21.20;;;20.20;;
41099;SDS011;26844;53.686;-6.346;2024-02-04T08:06:22;20.10;;;19.10;;
41099;SDS011;26844;53.686;-6.346;2024-02-04T08:08:47;20.42;;;19.42;;
41099;SDS011;26844;53.686;-6.346;2024-02-04T08:11:19;19.50;;;18.60;;
41099;SDS011;26844;53.686;-6.346;2024-02-04T08:13:45;19.35;;;18.45;;
41099;SDS011;26844;53.686;-6.346;2024-02-04T08:16:10;19.20;;;18.30;;
41099;SDS011;26844;53.686;-6.346;2024-02-04T08:18:36;19.52;;;18.63;;
41099;SDS011;26844;53.686;-6.346;2024-02-04T08:21:01;19.70;;;18.80;;
41099;SDS011;26844;53.686;-6.346;2024-02-04T08:23:27;19.85;;;18.95;;
41099;SDS011;26844;53.686;-6.346;2024-02-04T08:25:52;19.67;;;18.77;;
41099;SDS011;26844;53.686;-6.346;2024-02-04T08:28:17;19.88;;;18.98;;
41099;SDS011;26844;53.686;-6.346;2024-02-04T08:30:43;19.92;;;19.02;;
41099;SDS011;26844;53.686;-6.346;2024-02-04T08:33:08;19.67;;;18.77;;
41099;SDS011;26844;53.686;-6.346;2024-02-04T08:35:33;19.63;;;18.73;;
41099;SDS011;26844;53.686;-6.346;2024-02-04T08:37:59;19.67;;;18.77;;
41099;SDS011;26844;53.686;-6.346;2024-02-04T08:40:24;19.85;;;18.95;;
41099;SDS011;26844;53.686;-6.346;2024-02-04T08:42:49;20.17;;;19.27;;
41099;SDS011;26844;53.686;-6.346;2024-02-04T08:45:14;19.88;;;18.98;;
41099;SDS011;26844;53.686;-6.346;2024-02-04T08:47:40;20.25;;;19.35;;
41099;SDS011;26844;53.686;-6.346;2024-02-04T08:50:05;19.50;;;18.60;;
41099;SDS011;26844;53.686;-6.346;2024-02-04T08:52:31;20.25;;;19.35;;
41099;SDS011;26844;53.686;-6.346;2024-02-04T08:54:56;20.60;;;19.70;;
41099;SDS011;26844;53.686;-6.346;2024-02-04T08:57:21;20.60;;;19.70;;
41099;SDS011;26844;53.686;-6.346;2024-02-04T08:59:47;20.70;;;19.80;;
41099;SDS011;26844;53.686;-6.346;2024-02-04T09:02:12;20.20;;;19.30;;
41099;SDS011;26844;53.686;-6.346;2024-02-04T09:04:38;20.10;;;19.20;;
41099;SDS011;26844;53.686;-6.346;2024-02-04T09:07:06;19.88;;;18.98;;
41099;SDS011;26844;53.686;-6.346;2024-02-04T09:09:31;19.80;;;18.90;;
41099;SDS011;26844;53.686;-6.346;2024-02-04T09:11:56;20.10;;;19.20;;
41099;SDS011;26844;53.686;-6.346;2024-02-04T09:14:22;20.83;;;19.92;;
41099;SDS011;26844;53.686;-6.346;2024-02-04T09:16:47;20.05;;;19.15;;
41099;SDS011;26844;53.686;-6.346;2024-02-04T09:19:12;19.63;;;18.73;;
41099;SDS011;26844;53.686;-6.346;2024-02-04T09:21:38;19.60;;;18.70;;
41099;SDS011;26844;53.686;-6.346;2024-02-04T09:24:03;19.55;;;18.65;;
41099;SDS011;26844;53.686;-6.346;2024-02-04T09:26:29;19.15;;;18.35;;
41099;SDS011;26844;53.686;-6.346;2024-02-04T09:28:54;19.05;;;18.25;;
41099;SDS011;26844;53.686;-6.346;2024-02-04T09:31:20;19.08;;;18.27;;
41099;SDS011;26844;53.686;-6.346;2024-02-04T09:33:45;18.70;;;17.90;;
41099;SDS011;26844;53.686;-6.346;2024-02-04T09:36:10;18.08;;;17.27;;
41099;SDS011;26844;53.686;-6.346;2024-02-04T09:38:35;18.23;;;17.42;;
41099;SDS011;26844;53.686;-6.346;2024-02-04T09:41:01;16.95;;;16.25;;
41099;SDS011;26844;53.686;-6.346;2024-02-04T09:43:29;16.23;;;15.52;;
41099;SDS011;26844;53.686;-6.346;2024-02-04T09:45:55;17.00;;;16.30;;
41099;SDS011;26844;53.686;-6.346;2024-02-04T09:48:20;17.38;;;16.67;;
41099;SDS011;26844;53.686;-6.346;2024-02-04T09:50:49;17.60;;;16.90;;
41099;SDS011;26844;53.686;-6.346;2024-02-04T09:53:15;18.50;;;17.70;;
41099;SDS011;26844;53.686;-6.346;2024-02-04T09:55:44;18.80;;;18.00;;
41099;SDS011;26844;53.686;-6.346;2024-02-04T09:58:09;18.70;;;17.90;;
41099;SDS011;26844;53.686;-6.346;2024-02-04T10:00:35;18.23;;;17.42;;
41099;SDS011;26844;53.686;-6.346;2024-02-04T10:03:00;18.25;;;17.45;;
41099;SDS011;26844;53.686;-6.346;2024-02-04T10:05:27;18.38;;;17.58;;
41099;SDS011;26844;53.686;-6.346;2024-02-04T10:07:52;18.40;;;17.60;;
41099;SDS011;26844;53.686;-6.346;2024-02-04T10:10:17;18.98;;;18.17;;
41099;SDS011;26844;53.686;-6.346;2024-02-04T10:12:43;17.80;;;17.10;;
41099;SDS011;26844;53.686;-6.346;2024-02-04T10:15:09;18.50;;;17.70;;
41099;SDS011;26844;53.686;-6.346;2024-02-04T10:17:34;18.30;;;17.50;;
41099;SDS011;26844;53.686;-6.346;2024-02-04T10:20:00;19.05;;;18.25;;
41099;SDS011;26844;53.686;-6.346;2024-02-04T10:22:28;19.08;;;18.27;;
41099;SDS011;26844;53.686;-6.346;2024-02-04T10:24:54;18.50;;;17.70;;
41099;SDS011;26844;53.686;-6.346;2024-02-04T10:27:19;17.60;;;16.90;;
41099;SDS011;26844;53.686;-6.346;2024-02-04T10:29:44;16.42;;;15.73;;
41099;SDS011;26844;53.686;-6.346;2024-02-04T10:32:10;16.48;;;15.77;;
41099;SDS011;26844;53.686;-6.346;2024-02-04T10:34:38;18.17;;;17.38;;
41099;SDS011;26844;53.686;-6.346;2024-02-04T10:37:04;16.40;;;15.70;;
41099;SDS011;26844;53.686;-6.346;2024-02-04T10:39:29;16.60;;;15.90;;
41099;SDS011;26844;53.686;-6.346;2024-02-04T10:41:55;16.77;;;16.08;;
41099;SDS011;26844;53.686;-6.346;2024-02-04T10:44:21;15.52;;;14.93;;
41099;SDS011;26844;53.686;-6.346;2024-02-04T10:46:47;15.65;;;15.05;;
41099;SDS011;26844;53.686;-6.346;2024-02-04T10:49:17;16.33;;;15.63;;
41099;SDS011;26844;53.686;-6.346;2024-02-04T10:51:43;15.60;;;15.00;;
41099;SDS011;26844;53.686;-6.346;2024-02-04T10:54:09;15.30;;;14.70;;
41099;SDS011;26844;53.686;-6.346;2024-02-04T10:56:37;16.17;;;15.50;;
41099;SDS011;26844;53.686;-6.346;2024-02-04T10:59:02;16.08;;;15.45;;
41099;SDS011;26844;53.686;-6.346;2024-02-04T11:01:28;15.63;;;15.02;;
41099;SDS011;26844;53.686;-6.346;2024-02-04T11:03:53;15.27;;;14.68;;
41099;SDS011;26844;53.686;-6.346;2024-02-04T11:06:20;15.55;;;14.95;;
41099;SDS011;26844;53.686;-6.346;2024-02-04T11:08:45;15.20;;;14.60;;
41099;SDS011;26844;53.686;-6.346;2024-02-04T11:11:11;15.02;;;14.43;;
41099;SDS011;26844;53.686;-6.346;2024-02-04T11:13:40;15.55;;;14.95;;
41099;SDS011;26844;53.686;-6.346;2024-02-04T11:16:08;15.50;;;14.90;;
41099;SDS011;26844;53.686;-6.346;2024-02-04T11:23:44;16.73;;;16.02;;
41099;SDS011;26844;53.686;-6.346;2024-02-04T11:26:13;15.30;;;14.70;;
41099;SDS011;26844;53.686;-6.346;2024-02-04T11:28:39;15.00;;;14.40;;
41099;SDS011;26844;53.686;-6.346;2024-02-04T11:31:04;14.90;;;14.30;;
41099;SDS011;26844;53.686;-6.346;2024-02-04T11:33:30;14.98;;;14.38;;
41099;SDS011;26844;53.686;-6.346;2024-02-04T11:36:05;15.68;;;15.07;;
41099;SDS011;26844;53.686;-6.346;2024-02-04T11:38:32;16.88;;;16.17;;
41099;SDS011;26844;53.686;-6.346;2024-02-04T11:40:58;15.77;;;15.18;;
41099;SDS011;26844;53.686;-6.346;2024-02-04T11:43:23;16.10;;;15.48;;
41099;SDS011;26844;53.686;-6.346;2024-02-04T11:45:51;15.77;;;15.18;;
41099;SDS011;26844;53.686;-6.346;2024-02-04T11:48:16;16.08;;;15.48;;
41099;SDS011;26844;53.686;-6.346;2024-02-04T11:50:41;14.48;;;13.88;;
41099;SDS011;26844;53.686;-6.346;2024-02-04T11:53:10;13.80;;;13.30;;
41099;SDS011;26844;53.686;-6.346;2024-02-04T11:55:36;13.70;;;13.20;;
41099;SDS011;26844;53.686;-6.346;2024-02-04T11:58:07;12.52;;;12.02;;
41099;SDS011;26844;53.686;-6.346;2024-02-04T12:00:34;11.73;;;11.32;;
41099;SDS011;26844;53.686;-6.346;2024-02-04T12:03:00;11.68;;;11.25;;
41099;SDS011;26844;53.686;-6.346;2024-02-04T12:05:26;11.40;;;11.00;;
41099;SDS011;26844;53.686;-6.346;2024-02-04T12:07:52;11.30;;;10.90;;
41099;SDS011;26844;53.686;-6.346;2024-02-04T12:10:17;10.70;;;10.30;;
41099;SDS011;26844;53.686;-6.346;2024-02-04T12:12:43;11.25;;;10.85;;
41099;SDS011;26844;53.686;-6.346;2024-02-04T12:15:08;11.43;;;11.02;;
41099;SDS011;26844;53.686;-6.346;2024-02-04T12:17:34;11.50;;;11.10;;
41099;SDS011;26844;53.686;-6.346;2024-02-04T12:19:59;12.38;;;11.88;;
41099;SDS011;26844;53.686;-6.346;2024-02-04T12:22:25;12.25;;;11.75;;
41099;SDS011;26844;53.686;-6.346;2024-02-04T12:24:50;11.40;;;11.00;;
41099;SDS011;26844;53.686;-6.346;2024-02-04T12:27:15;11.00;;;10.60;;
41099;SDS011;26844;53.686;-6.346;2024-02-04T12:29:41;11.25;;;10.85;;
41099;SDS011;26844;53.686;-6.346;2024-02-04T12:32:06;11.27;;;10.88;;
41099;SDS011;26844;53.686;-6.346;2024-02-04T12:34:31;11.02;;;10.63;;
41099;SDS011;26844;53.686;-6.346;2024-02-04T12:36:59;11.10;;;10.70;;
41099;SDS011;26844;53.686;-6.346;2024-02-04T12:39:28;11.05;;;10.65;;
41099;SDS011;26844;53.686;-6.346;2024-02-04T12:41:53;10.80;;;10.40;;
41099;SDS011;26844;53.686;-6.346;2024-02-04T12:44:18;10.80;;;10.40;;
41099;SDS011;26844;53.686;-6.346;2024-02-04T12:46:44;10.88;;;10.48;;
41099;SDS011;26844;53.686;-6.346;2024-02-04T12:49:09;9.85;;;9.45;;
41099;SDS011;26844;53.686;-6.346;2024-02-04T12:51:34;10.32;;;9.93;;
41099;SDS011;26844;53.686;-6.346;2024-02-04T12:54:06;9.90;;;9.50;;
41099;SDS011;26844;53.686;-6.346;2024-02-04T12:59:06;9.25;;;8.95;;
41099;SDS011;26844;53.686;-6.346;2024-02-04T13:01:31;9.80;;;9.40;;
41099;SDS011;26844;53.686;-6.346;2024-02-04T13:03:57;8.90;;;8.60;;
41099;SDS011;26844;53.686;-6.346;2024-02-04T13:06:22;8.73;;;8.43;;
41099;SDS011;26844;53.686;-6.346;2024-02-04T13:08:47;8.10;;;7.80;;
41099;SDS011;26844;53.686;-6.346;2024-02-04T13:11:19;8.52;;;8.23;;
41099;SDS011;26844;53.686;-6.346;2024-02-04T13:13:44;8.43;;;8.13;;
41099;SDS011;26844;53.686;-6.346;2024-02-04T13:16:09;8.57;;;8.27;;
41099;SDS011;26844;53.686;-6.346;2024-02-04T13:18:35;8.18;;;7.88;;
41099;SDS011;26844;53.686;-6.346;2024-02-04T13:21:00;8.43;;;8.13;;
41099;SDS011;26844;53.686;-6.346;2024-02-04T13:23:25;8.00;;;7.70;;
41099;SDS011;26844;53.686;-6.346;2024-02-04T13:25:50;8.05;;;7.75;;
41099;SDS011;26844;53.686;-6.346;2024-02-04T13:28:16;7.72;;;7.43;;
41099;SDS011;26844;53.686;-6.346;2024-02-04T13:30:43;7.70;;;7.40;;
41099;SDS011;26844;53.686;-6.346;2024-02-04T13:33:08;7.90;;;7.60;;
41099;SDS011;26844;53.686;-6.346;2024-02-04T13:35:34;7.90;;;7.60;;
41099;SDS011;26844;53.686;-6.346;2024-02-04T13:37:59;7.78;;;7.47;;
41099;SDS011;26844;53.686;-6.346;2024-02-04T13:40:24;7.53;;;7.22;;
41099;SDS011;26844;53.686;-6.346;2024-02-04T13:42:50;7.30;;;7.00;;
41099;SDS011;26844;53.686;-6.346;2024-02-04T13:45:16;7.15;;;6.93;;
41099;SDS011;26844;53.686;-6.346;2024-02-04T13:47:42;7.32;;;7.03;;
41099;SDS011;26844;53.686;-6.346;2024-02-04T13:50:08;7.38;;;7.07;;
41099;SDS011;26844;53.686;-6.346;2024-02-04T13:52:34;6.90;;;6.70;;
41099;SDS011;26844;53.686;-6.346;2024-02-04T13:54:59;7.10;;;6.90;;
41099;SDS011;26844;53.686;-6.346;2024-02-04T13:57:25;6.88;;;6.68;;
41099;SDS011;26844;53.686;-6.346;2024-02-04T13:59:50;7.38;;;7.07;;
41099;SDS011;26844;53.686;-6.346;2024-02-04T14:02:15;7.40;;;7.10;;
41099;SDS011;26844;53.686;-6.346;2024-02-04T14:04:40;7.90;;;7.60;;
41099;SDS011;26844;53.686;-6.346;2024-02-04T14:07:06;6.72;;;6.53;;
41099;SDS011;26844;53.686;-6.346;2024-02-04T14:09:31;7.35;;;7.05;;
41099;SDS011;26844;53.686;-6.346;2024-02-04T14:11:57;7.55;;;7.25;;